Time;durP1;ratioP1;P1;durP2;ratioP2;P2;SDS_P1;SDS_P2;PMS_P1;PMS_P2;Temp;Humidity;BMP_temperature;BMP_pressure;BME280_temperature;BME280_humidity;BME280_pressure;Samples;Min_cycle;Max_cycle;Signal;HPM_P1;HPM_P2
2024/03/01 00:02:14;;;;;;;9.43;5.13;;;14.10;99.90;;;14.27;45.87;99969.63;6090710;22;98803;-37
2024/03/01 00:04:42;;;;;;;14.27;7.10;;;14.00;99.90;;;14.10;44.71;99958.34;6093806;22;97284;-38
2024/03/01 00:07:07;;;;;;;5.73;2.80;;;13.80;99.90;;;14.19;47.52;99965.75;6094361;22;97793;-36
2024/03/01 00:09:33;;;;;;;13.87;6.97;;;13.80;99.90;;;14.05;45.25;99957.78;6096547;22;97821;-40
2024/03/01 00:12:25;;;;;;;6.93;3.33;;;13.70;99.90;;;14.17;47.66;99954.34;6095475;22;98254;-37
2024/03/01 00:14:51;;;;;;;8.73;5.00;;;13.80;99.90;;;14.22;48.36;99960.25;6082869;22;97827;-39
2024/03/01 00:17:17;;;;;;;3.43;2.60;;;13.80;99.90;;;14.33;48.20;99956.94;6002236;22;100563;-36
2024/03/01 00:19:42;;;;;;;7.83;5.20;;;14.00;99.90;;;14.40;48.31;99953.78;6055598;22;104018;-38
2024/03/01 00:22:08;;;;;;;12.30;6.17;;;14.10;99.90;;;14.46;47.31;99952.56;6096009;22;108028;-37
2024/03/01 00:24:34;;;;;;;6.53;3.87;;;14.30;99.90;;;14.53;47.83;99953.91;6095589;22;98459;-37
2024/03/01 00:27:00;;;;;;;3.13;2.30;;;14.40;99.90;;;14.61;47.75;99945.44;6079089;22;97283;-36
2024/03/01 00:29:26;;;;;;;3.83;2.10;;;14.40;99.90;;;14.71;47.53;99943.94;6074950;22;98138;-38
2024/03/01 00:31:54;;;;;;;4.37;2.30;;;14.60;99.90;;;14.81;47.15;99937.94;6071222;22;100766;-38
2024/03/01 00:34:20;;;;;;;8.43;4.20;;;14.80;99.90;;;14.79;46.59;99941.66;6054650;22;105196;-36
2024/03/01 00:36:45;;;;;;;9.30;4.33;;;14.70;99.90;;;14.77;46.45;99940.91;6072059;22;107991;-36
2024/03/01 00:39:18;;;;;;;12.33;6.40;;;14.60;99.90;;;14.65;43.74;99947.00;6108928;22;99045;-37
2024/03/01 00:41:46;;;;;;;7.57;4.20;;;14.50;99.90;;;14.66;47.11;99938.94;6093635;22;97936;-38
2024/03/01 00:44:12;;;;;;;9.67;4.57;;;14.40;99.90;;;14.66;44.69;99938.06;6091115;22;97786;-38
2024/03/01 00:46:41;;;;;;;9.17;4.73;;;14.50;99.90;;;14.53;44.14;99935.34;6078020;22;96945;-38
2024/03/01 00:49:06;;;;;;;6.13;3.23;;;14.40;99.90;;;14.53;45.08;99933.53;6086599;22;105037;-36
2024/03/01 00:51:36;;;;;;;5.67;3.30;;;14.30;99.90;;;14.52;47.62;99931.84;6099343;22;104261;-38
2024/03/01 00:54:02;;;;;;;11.13;5.23;;;14.30;99.90;;;14.48;46.47;99930.34;6096306;22;105567;-39
2024/03/01 00:56:33;;;;;;;9.43;4.73;;;14.30;99.90;;;14.42;47.44;99927.16;6081562;22;98106;-38
2024/03/01 00:58:59;;;;;;;6.43;3.90;;;14.20;99.90;;;14.43;47.44;99921.75;6028579;22;100927;-37
2024/03/01 01:01:28;;;;;;;5.90;3.23;;;14.30;99.90;;;14.49;47.91;99921.44;6040159;22;98780;-36
2024/03/01 01:03:59;;;;;;;3.30;2.20;;;14.20;99.90;;;14.53;48.15;99925.56;5997482;22;97658;-35
2024/03/01 01:06:25;;;;;;;4.03;2.47;;;14.30;99.90;;;14.64;47.58;99919.59;6028932;22;97597;-37
2024/03/01 01:08:50;;;;;;;11.93;5.93;;;14.50;99.90;;;14.61;47.13;99921.56;6043243;22;114392;-37
2024/03/01 01:11:16;;;;;;;2.93;1.90;;;14.50;99.90;;;14.68;47.53;99914.94;6078853;22;99011;-37
2024/03/01 01:13:48;;;;;;;11.10;5.70;;;14.50;99.90;;;14.75;44.97;99911.78;6097792;22;101813;-41
2024/03/01 01:16:13;;;;;;;4.73;2.70;;;14.70;99.90;;;14.83;47.06;99908.63;6080020;22;97648;-36
2024/03/01 01:18:42;;;;;;;7.37;3.73;;;14.80;99.90;;;14.91;46.62;99903.69;6068702;22;124576;-38
2024/03/01 01:21:08;;;;;;;8.40;3.97;;;14.90;99.90;;;14.82;45.26;99891.84;6026357;22;100912;-37
2024/03/01 01:23:34;;;;;;;9.27;5.70;;;14.90;99.90;;;14.65;45.26;99902.72;6068067;22;98486;-37
2024/03/01 01:26:00;;;;;;;4.80;3.07;;;14.60;99.90;;;14.67;45.67;99898.16;6052510;22;97943;-39
2024/03/01 01:28:28;;;;;;;11.50;6.60;;;14.50;99.90;;;14.38;43.71;99907.94;6074916;22;99216;-37
2024/03/01 01:30:54;;;;;;;9.30;4.93;;;14.20;99.90;;;14.10;48.04;99921.22;6093306;22;98045;-37
2024/03/01 01:33:23;;;;;;;8.93;4.20;;;13.80;99.90;;;13.95;48.27;99910.59;6090665;22;97693;-38
2024/03/01 01:35:49;;;;;;;8.17;4.50;;;13.60;99.90;;;14.05;49.05;99900.31;6078976;22;98401;-36
2024/03/01 01:38:15;;;;;;;9.43;5.13;;;13.70;99.90;;;13.93;47.18;99899.25;6088674;22;101025;-37
2024/03/01 01:40:41;;;;;;;10.07;6.30;;;13.60;99.90;;;13.65;45.44;99908.03;6091242;22;97770;-36
2024/03/01 01:43:08;;;;;;;13.50;6.90;;;13.40;99.90;;;13.51;47.73;99907.13;6123385;22;97730;-38
2024/03/01 01:45:37;;;;;;;11.73;7.10;;;13.30;99.90;;;13.37;46.22;99907.97;6118027;22;97595;-36
2024/03/01 01:48:04;;;;;;;8.77;4.87;;;13.10;99.90;;;13.37;49.91;99898.22;6117451;22;103241;-39
2024/03/01 01:50:32;;;;;;;16.30;7.23;;;13.00;99.90;;;13.35;47.61;99905.41;6092567;22;97460;-39
2024/03/01 01:53:01;;;;;;;4.20;3.07;;;13.00;99.90;;;13.44;50.50;99897.84;6099838;22;100767;-36
2024/03/01 01:55:27;;;;;;;11.73;6.40;;;13.10;99.90;;;13.40;49.02;99895.38;6086577;22;97338;-37
2024/03/01 01:57:53;;;;;;;5.47;2.97;;;13.10;99.90;;;13.52;50.34;99896.44;6099312;22;106580;-41
2024/03/01 02:00:22;;;;;;;13.77;7.03;;;13.20;99.90;;;13.44;47.90;99892.53;6103946;22;97822;-38
2024/03/01 02:02:50;;;;;;;6.90;3.77;;;13.20;99.90;;;13.58;49.56;99884.63;6120267;22;97698;-38
2024/03/01 02:05:19;;;;;;;6.33;3.50;;;13.20;99.90;;;13.61;48.39;99890.63;6116657;22;97330;-35
2024/03/01 02:07:46;;;;;;;4.57;2.63;;;13.30;99.90;;;13.70;50.15;99884.72;6114250;22;97942;-36
2024/03/01 02:10:22;;;;;;;11.33;4.90;;;13.40;99.90;;;13.86;49.44;99876.69;6116849;22;97609;-38
2024/03/01 02:13:00;;;;;;;11.50;5.73;;;13.60;99.90;;;13.82;48.06;99869.03;6102980;22;105159;-36
2024/03/01 02:15:27;;;;;;;7.53;3.77;;;13.50;99.90;;;13.95;49.66;99867.34;6114919;22;97686;-35
2024/03/01 02:17:54;;;;;;;13.90;6.80;;;13.60;99.90;;;13.80;48.46;99869.13;6101976;22;106181;-36
2024/03/01 02:20:24;;;;;;;7.77;3.80;;;13.50;99.90;;;13.91;49.54;99866.69;6115336;22;98175;-39
2024/03/01 02:23:06;;;;;;;7.73;3.93;;;13.50;99.90;;;14.04;49.39;99865.94;6087236;22;97559;-36
2024/03/01 02:25:35;;;;;;;14.53;7.13;;;13.70;99.90;;;14.09;46.81;99853.22;6110603;22;98299;-37
2024/03/01 02:28:02;;;;;;;6.07;3.07;;;13.90;99.90;;;14.27;48.80;99852.06;6118004;22;97973;-39
2024/03/01 02:30:28;;;;;;;7.00;3.80;;;14.10;99.90;;;14.37;46.36;99855.84;6102215;22;97803;-36
2024/03/01 02:32:54;;;;;;;5.00;2.93;;;14.30;99.90;;;14.53;48.14;99855.72;6117022;22;97117;-36
2024/03/01 02:35:22;;;;;;;4.73;2.90;;;14.40;99.90;;;14.69;47.77;99844.97;6115305;22;99469;-36
2024/03/01 02:37:48;;;;;;;7.70;4.37;;;14.70;99.90;;;14.64;47.31;99839.13;6115399;22;99680;-37
2024/03/01 02:40:14;;;;;;;10.57;5.70;;;14.60;99.90;;;14.70;45.38;99846.66;6106794;22;112163;-37
2024/03/01 02:42:40;;;;;;;12.47;7.00;;;14.70;99.90;;;14.61;44.72;99847.25;6105598;22;97347;-36
2024/03/01 02:45:07;;;;;;;12.93;6.80;;;14.50;99.90;;;14.45;44.41;99845.59;6121565;22;97278;-36
2024/03/01 02:47:33;;;;;;;14.03;6.83;;;14.40;99.90;;;14.34;45.64;99837.47;6117872;22;103093;-36
2024/03/01 02:49:59;;;;;;;13.20;6.20;;;14.20;99.90;;;14.17;45.40;99837.66;6118739;22;99185;-41
2024/03/01 02:52:25;;;;;;;6.77;3.57;;;14.00;99.90;;;14.17;46.30;99835.00;6104115;22;97609;-36
2024/03/01 02:54:51;;;;;;;10.67;4.77;;;13.90;99.90;;;14.12;45.70;99834.47;6137675;22;97707;-36
2024/03/01 02:57:17;;;;;;;8.23;3.33;;;13.90;99.90;;;14.23;48.74;99842.59;6089399;22;100763;-38
2024/03/01 02:59:42;;;;;;;7.97;4.17;;;14.00;99.90;;;14.18;48.38;99836.75;6109706;22;125754;-37
2024/03/01 03:02:08;;;;;;;14.37;6.77;;;14.00;99.90;;;14.13;47.75;99844.97;6115547;22;110886;-40
2024/03/01 03:04:34;;;;;;;6.90;3.60;;;14.00;99.90;;;14.15;46.35;99847.53;6118347;22;98286;-38
2024/03/01 03:07:00;;;;;;;5.93;3.67;;;14.00;99.90;;;14.19;48.42;99843.75;6115395;22;117575;-37
2024/03/01 03:09:26;;;;;;;8.07;4.63;;;14.00;99.90;;;14.08;47.10;99851.53;6112558;22;99194;-37
2024/03/01 03:11:52;;;;;;;9.80;5.07;;;13.90;99.90;;;14.10;47.81;99849.63;6112995;22;97191;-36
2024/03/01 03:14:21;;;;;;;12.77;6.13;;;13.90;99.90;;;13.99;48.03;99861.75;6116828;22;96986;-38
2024/03/01 03:16:50;;;;;;;8.37;4.97;;;13.80;99.90;;;14.14;48.45;99843.16;6098934;22;100790;-36
2024/03/01 03:19:23;;;;;;;7.53;4.17;;;14.00;99.90;;;14.27;47.82;99852.91;6114632;22;98986;-36
2024/03/01 03:21:49;;;;;;;10.93;5.83;;;14.20;99.90;;;14.23;46.67;99846.09;6115049;22;97140;-37
2024/03/01 03:24:14;;;;;;;6.23;3.70;;;14.20;99.90;;;14.30;48.62;99841.25;6023613;22;97426;-36
2024/03/01 03:26:40;;;;;;;4.17;2.63;;;14.10;99.90;;;14.37;48.63;99842.56;6098057;22;98483;-37
2024/03/01 03:29:06;;;;;;;9.50;3.83;;;14.20;99.90;;;14.31;47.73;99848.25;6142565;22;102910;-37
2024/03/01 03:31:41;;;;;;;7.97;5.20;;;14.20;99.90;;;14.40;48.15;99841.50;6114358;22;97089;-41
2024/03/01 03:34:08;;;;;;;9.17;5.00;;;14.20;99.90;;;14.42;46.68;99840.47;6064202;22;97205;-38
2024/03/01 03:36:34;;;;;;;4.53;3.07;;;14.30;99.90;;;14.37;48.59;99842.56;6066974;22;102582;-36
2024/03/01 03:39:00;;;;;;;6.17;3.30;;;14.20;99.90;;;14.42;47.04;99835.16;6099997;22;98900;-36
2024/03/01 03:41:26;;;;;;;8.23;4.13;;;14.30;99.90;;;14.35;47.39;99839.16;6102652;22;97107;-38
2024/03/01 03:43:52;;;;;;;7.63;3.30;;;14.20;99.90;;;14.37;48.49;99839.06;6115652;22;97346;-37
2024/03/01 03:46:18;;;;;;;5.27;3.63;;;14.20;99.90;;;14.33;47.35;99841.06;6100039;22;99946;-38
2024/03/01 03:48:44;;;;;;;4.17;2.50;;;14.30;99.90;;;14.48;48.65;99842.78;6100623;22;97389;-37
2024/03/01 03:51:10;;;;;;;4.43;3.10;;;14.30;99.90;;;14.57;48.16;99826.22;6043895;22;97626;-36
2024/03/01 03:53:36;;;;;;;5.60;3.27;;;14.50;99.90;;;14.55;47.73;99825.50;6113309;22;109390;-37
2024/03/01 03:56:03;;;;;;;5.73;3.57;;;14.50;99.90;;;14.61;47.79;99821.59;6086941;22;122859;-41
2024/03/01 03:58:29;;;;;;;3.97;2.53;;;14.60;99.90;;;14.68;47.95;99814.91;6094962;22;108543;-37
2024/03/01 04:00:55;;;;;;;11.77;5.60;;;14.60;99.90;;;14.68;45.74;99827.34;6101498;22;113464;-43
2024/03/01 04:03:21;;;;;;;7.27;4.60;;;14.70;99.90;;;14.55;46.70;99838.75;6088032;22;97792;-36
2024/03/01 04:05:46;;;;;;;6.77;3.60;;;14.50;99.90;;;14.47;48.30;99827.81;6099063;22;106094;-38
2024/03/01 04:08:12;;;;;;;6.67;3.93;;;14.30;99.90;;;14.26;47.91;99839.75;6113826;22;124285;-35
2024/03/01 04:10:41;;;;;;;4.30;2.57;;;14.10;99.90;;;14.20;49.35;99835.69;6118927;22;97319;-36
2024/03/01 04:13:08;;;;;;;11.97;5.87;;;14.00;99.90;;;14.05;47.78;99835.81;6103621;22;97389;-40
2024/03/01 04:15:34;;;;;;;8.40;4.57;;;13.90;99.90;;;14.06;48.61;99829.56;6081586;22;99026;-42
2024/03/01 04:18:01;;;;;;;9.63;5.43;;;13.90;99.90;;;13.91;49.28;99831.38;6109902;22;98221;-38
2024/03/01 04:20:27;;;;;;;4.53;2.70;;;13.70;99.90;;;13.98;49.83;99836.19;6100783;22;97172;-38
2024/03/01 04:22:53;;;;;;;5.57;2.73;;;13.70;99.90;;;13.91;49.97;99829.56;6115685;22;109020;-36
2024/03/01 04:25:18;;;;;;;9.43;4.80;;;13.70;99.90;;;13.74;49.72;99832.38;6099434;22;98262;-36
2024/03/01 04:27:44;;;;;;;8.07;3.17;;;13.60;99.90;;;13.86;49.94;99825.47;6114152;22;105009;-37
2024/03/01 04:30:10;;;;;;;7.53;4.13;;;13.60;99.90;;;13.87;49.14;99837.78;6100435;22;97540;-37
2024/03/01 04:32:39;;;;;;;11.00;4.90;;;13.60;99.90;;;13.78;49.18;99839.22;6128185;22;97321;-37
2024/03/01 04:35:05;;;;;;;5.63;3.47;;;13.60;99.90;;;13.86;50.25;99836.09;6127603;22;103411;-35
2024/03/01 04:37:31;;;;;;;10.20;5.50;;;13.60;99.90;;;13.75;49.40;99842.06;6114210;22;99198;-36
2024/03/01 04:39:57;;;;;;;11.43;5.27;;;13.50;99.90;;;13.67;49.02;99847.81;6123195;22;97418;-37
2024/03/01 04:42:23;;;;;;;4.67;2.90;;;13.50;99.90;;;13.81;50.45;99839.03;6115976;22;100714;-35
2024/03/01 04:44:48;;;;;;;8.10;4.20;;;13.50;99.90;;;13.88;48.62;99845.63;6114737;22;117575;-41
2024/03/01 04:47:14;;;;;;;11.10;4.93;;;13.70;99.90;;;13.88;49.45;99840.34;6101036;22;103525;-37
2024/03/01 04:49:45;;;;;;;7.70;3.90;;;13.80;99.90;;;13.88;49.15;99840.34;6113483;22;116698;-39
2024/03/01 04:52:11;;;;;;;8.00;3.77;;;13.70;99.90;;;13.94;49.72;99850.56;6109711;22;97500;-38
2024/03/01 04:54:37;;;;;;;6.73;3.87;;;13.70;99.90;;;13.79;49.94;99845.38;6118333;22;126609;-36
2024/03/01 04:57:07;;;;;;;10.70;4.70;;;13.60;99.90;;;13.61;49.86;99842.91;6115568;22;98465;-36
2024/03/01 04:59:38;;;;;;;8.00;4.13;;;13.50;99.90;;;13.78;50.66;99833.94;6104951;22;97400;-38
2024/03/01 05:02:07;;;;;;;4.77;3.17;;;13.60;99.90;;;13.87;50.35;99843.94;6115776;22;97685;-36
2024/03/01 05:04:34;;;;;;;3.93;2.67;;;13.70;99.90;;;13.98;50.36;99841.47;6096694;22;116033;-37
2024/03/01 05:07:01;;;;;;;7.10;3.63;;;13.80;99.90;;;13.98;49.82;99845.94;6101452;22;98918;-37
2024/03/01 05:09:27;;;;;;;10.03;4.60;;;13.80;99.90;;;13.85;49.63;99845.84;6098628;22;97260;-36
2024/03/01 05:11:53;;;;;;;7.60;3.90;;;13.70;99.90;;;13.83;50.65;99842.44;6081750;22;97483;-36
2024/03/01 05:14:22;;;;;;;9.03;4.23;;;13.60;99.90;;;13.75;50.48;99844.72;6094727;22;98097;-37
2024/03/01 05:16:48;;;;;;;7.83;3.63;;;13.50;99.90;;;13.61;50.53;99852.66;6100331;22;97103;-37
2024/03/01 05:19:13;;;;;;;8.73;4.50;;;13.40;99.90;;;13.58;51.17;99848.38;6113085;22;108483;-37
2024/03/01 05:21:41;;;;;;;10.10;4.80;;;13.40;99.90;;;13.54;51.10;99851.31;6118236;22;102302;-37
2024/03/01 05:24:12;;;;;;;3.67;2.73;;;13.30;99.90;;;13.77;50.63;99849.94;6119703;22;103415;-38
2024/03/01 05:26:37;;;;;;;7.73;4.53;;;13.50;99.90;;;13.71;50.46;99843.19;6100991;22;102977;-36
2024/03/01 05:29:04;;;;;;;7.47;4.00;;;13.60;99.90;;;13.79;50.04;99856.84;6109297;22;107549;-37
2024/03/01 05:31:47;;;;;;;6.20;3.63;;;13.60;99.90;;;13.65;50.70;99857.69;6121337;22;97382;-36
2024/03/01 05:34:14;;;;;;;8.30;4.27;;;13.50;99.90;;;13.73;50.69;99862.50;6113784;22;102193;-38
2024/03/01 05:36:40;;;;;;;8.90;4.83;;;13.60;99.90;;;13.64;51.31;99868.38;6116078;22;98783;-36
2024/03/01 05:39:16;;;;;;;9.33;4.77;;;13.40;99.90;;;13.55;51.13;99868.91;6109750;22;96989;-36
2024/03/01 05:41:45;;;;;;;9.83;5.00;;;13.40;99.90;;;13.43;51.83;99859.03;6086127;22;97151;-38
2024/03/01 05:44:13;;;;;;;10.70;5.07;;;13.20;99.90;;;13.45;51.36;99867.75;6133237;22;99371;-37
2024/03/01 05:46:40;;;;;;;6.23;4.00;;;13.30;99.90;;;13.40;52.10;99866.25;6094125;22;97996;-38
2024/03/01 05:49:06;;;;;;;10.73;4.53;;;13.20;99.90;;;13.30;51.70;99865.06;6110346;22;97277;-38
2024/03/01 05:51:33;;;;;;;8.57;4.07;;;13.10;99.90;;;13.37;51.74;99877.03;6071006;22;101781;-38
2024/03/01 05:53:58;;;;;;;7.93;4.23;;;13.10;99.90;;;13.50;51.95;99871.00;6108067;22;97765;-37
2024/03/01 05:56:27;;;;;;;8.93;4.70;;;13.20;99.90;;;13.39;51.16;99880.44;6123180;22;100336;-36
2024/03/01 05:58:55;;;;;;;10.50;5.17;;;13.20;99.90;;;13.42;51.27;99883.84;6086482;22;97344;-38
2024/03/01 06:01:21;;;;;;;10.47;5.27;;;13.20;99.90;;;13.10;51.90;99889.19;6110582;22;97423;-36
2024/03/01 06:03:47;;;;;;;8.47;4.63;;;13.00;99.90;;;13.05;52.41;99891.28;6128566;22;99607;-37
2024/03/01 06:06:15;;;;;;;7.47;4.30;;;12.90;99.90;;;12.86;53.18;99895.91;6116539;22;97477;-36
2024/03/01 06:08:41;;;;;;;9.83;4.67;;;12.80;99.90;;;13.01;53.55;99895.00;6116233;22;97303;-37
2024/03/01 06:11:10;;;;;;;12.17;5.37;;;12.70;99.90;;;12.92;52.97;99912.28;6120161;22;97080;-36
2024/03/01 06:13:38;;;;;;;5.00;2.93;;;12.80;99.90;;;13.07;53.21;99915.84;6083316;22;103851;-35
2024/03/01 06:16:05;;;;;;;8.13;3.87;;;12.90;99.90;;;13.07;53.35;99921.16;6113457;22;99404;-36
2024/03/01 06:18:31;;;;;;;7.30;4.37;;;12.90;99.90;;;12.75;53.48;99949.44;6099559;22;97424;-36
2024/03/01 06:20:57;;;;;;;9.20;4.60;;;12.70;99.90;;;12.69;53.50;99937.41;6118353;22;97333;-36
2024/03/01 06:23:28;;;;;;;9.03;4.73;;;12.60;99.90;;;12.78;54.22;99941.34;6105314;22;97963;-36
2024/03/01 06:25:54;;;;;;;11.57;5.30;;;12.60;99.90;;;12.67;53.85;99957.78;6113757;22;99587;-37
2024/03/01 06:28:19;;;;;;;8.10;4.00;;;12.60;99.90;;;12.71;53.93;99969.91;6136582;22;97721;-37
2024/03/01 06:30:45;;;;;;;12.97;5.70;;;12.70;99.90;;;12.61;54.49;99979.31;6081510;22;111665;-37
2024/03/01 06:33:14;;;;;;;8.43;4.83;;;12.60;99.90;;;12.51;54.58;99975.44;6096198;22;119490;-38
2024/03/01 06:35:39;;;;;;;8.83;4.60;;;12.50;99.90;;;12.51;55.11;99983.38;6083578;22;97261;-41
2024/03/01 06:38:06;;;;;;;12.67;6.10;;;12.50;99.90;;;12.40;55.25;99967.22;6113643;22;97301;-38
2024/03/01 06:40:34;;;;;;;9.30;5.17;;;12.40;99.90;;;12.49;55.26;99964.97;6116104;22;98120;-36
2024/03/01 06:43:00;;;;;;;9.80;5.10;;;12.40;99.90;;;12.38;55.93;99969.13;6113158;22;98012;-35
2024/03/01 06:45:26;;;;;;;8.33;4.70;;;12.40;99.90;;;12.39;55.93;99970.81;6104332;22;98349;-37
2024/03/01 06:47:51;;;;;;;7.33;4.40;;;12.30;99.90;;;12.37;55.90;99972.69;6133846;22;98661;-35
2024/03/01 06:50:17;;;;;;;9.67;6.10;;;12.30;99.90;;;12.35;56.03;99977.22;6114271;22;109135;-36
2024/03/01 06:52:46;;;;;;;9.77;4.43;;;12.30;99.90;;;12.37;56.02;99984.13;6114244;22;99646;-37
2024/03/01 06:55:11;;;;;;;13.40;5.17;;;12.20;99.90;;;12.28;56.37;99995.19;6113410;22;98522;-38
2024/03/01 06:57:40;;;;;;;11.03;4.30;;;12.20;99.90;;;12.31;56.62;99991.56;6103537;22;112378;-37
2024/03/01 07:00:07;;;;;;;8.30;4.57;;;12.20;99.90;;;12.35;56.50;99995.72;6116337;22;99694;-40
2024/03/01 07:02:33;;;;;;;9.20;4.50;;;12.20;99.90;;;12.24;56.86;99996.28;6114708;22;97888;-36
2024/03/01 07:04:59;;;;;;;5.60;3.53;;;12.20;99.90;;;12.17;57.15;99997.56;6113125;22;116206;-36
2024/03/01 07:07:24;;;;;;;5.50;3.23;;;12.10;99.90;;;12.30;57.15;100011.00;6088605;22;114869;-37
2024/03/01 07:09:51;;;;;;;2.73;1.40;;;12.20;99.90;;;12.49;55.14;100014.38;6114665;22;97308;-35
2024/03/01 07:12:17;;;;;;;1.23;0.93;;;12.50;99.90;;;12.83;54.68;100008.09;6108757;22;97981;-37
2024/03/01 07:14:43;;;;;;;1.47;1.20;;;12.70;99.90;;;12.78;54.16;100020.72;6131210;22;100095;-37
2024/03/01 07:17:12;;;;;;;2.30;1.50;;;12.90;99.90;;;12.78;54.80;100018.94;6103983;22;97704;-37
2024/03/01 07:19:38;;;;;;;1.10;0.87;;;12.80;99.90;;;12.93;54.31;100029.63;6117304;22;97512;-38
2024/03/01 07:22:04;;;;;;;1.10;0.87;;;12.80;99.90;;;12.73;55.13;100026.28;6116745;22;98715;-36
2024/03/01 07:24:30;;;;;;;0.90;0.80;;;12.70;99.90;;;12.76;54.73;100028.75;6079540;22;115041;-37
2024/03/01 07:26:56;;;;;;;1.00;0.90;;;12.70;99.90;;;12.69;55.06;100027.34;6121410;22;111796;-38
2024/03/01 07:29:21;;;;;;;1.13;0.90;;;12.70;99.90;;;12.78;54.84;100028.66;6115304;22;112128;-37
2024/03/01 07:31:47;;;;;;;0.80;0.80;;;12.70;99.90;;;12.84;54.69;100025.66;6097488;22;97986;-37
2024/03/01 07:34:13;;;;;;;0.93;0.60;;;12.60;99.90;;;13.09;53.68;100025.19;6104917;22;125912;-36
2024/03/01 07:36:39;;;;;;;2.03;0.93;;;12.90;99.90;;;13.11;53.81;100018.84;6110056;22;97843;-37
2024/03/01 07:39:10;;;;;;;0.50;0.50;;;12.90;99.90;;;13.32;53.20;100030.06;6113643;22;102688;-37
2024/03/01 07:41:36;;;;;;;1.47;0.80;;;13.20;99.90;;;13.31;52.74;100028.38;6099660;22;104611;-38
2024/03/01 07:44:02;;;;;;;0.83;0.67;;;13.30;99.90;;;13.44;50.89;100014.41;6096285;22;105295;-37
2024/03/01 07:46:28;;;;;;;0.73;0.70;;;13.30;99.90;;;13.36;51.87;100028.94;6114021;22;97469;-38
2024/03/01 07:48:56;;;;;;;1.47;0.90;;;13.30;99.90;;;13.29;53.25;100037.31;6065371;22;97284;-38
2024/03/01 07:51:25;;;;;;;1.10;0.83;;;13.10;99.90;;;13.11;53.43;100028.59;6057514;22;97413;-37
2024/03/01 07:53:51;;;;;;;1.27;1.00;;;13.00;99.90;;;13.07;54.04;100037.66;6018333;22;111266;-37
2024/03/01 07:56:23;;;;;;;1.30;1.20;;;12.80;99.90;;;13.26;53.04;100054.25;5978449;22;100351;-36
2024/03/01 07:59:04;;;;;;;1.23;1.10;;;13.00;99.90;;;13.15;54.05;100051.28;5986321;22;97415;-36
2024/03/01 08:01:31;;;;;;;1.90;1.10;;;12.90;99.90;;;13.02;54.36;100048.50;6072411;22;98084;-37
2024/03/01 08:03:57;;;;;;;1.70;1.17;;;12.80;99.90;;;13.02;54.58;100045.00;6081749;22;100107;-37
2024/03/01 08:06:25;;;;;;;1.43;1.17;;;12.70;99.90;;;12.89;54.60;100041.31;6070050;22;101135;-38
2024/03/01 08:08:51;;;;;;;2.60;1.20;;;12.60;99.90;;;13.08;53.92;100044.66;6043776;22;97970;-37
2024/03/01 08:11:38;;;;;;;1.43;1.20;;;12.70;99.90;;;13.06;54.12;100047.38;5989668;22;97915;-38
2024/03/01 08:14:07;;;;;;;1.37;1.20;;;12.80;99.90;;;12.91;54.80;100052.66;5957049;22;106033;-38
2024/03/01 08:16:33;;;;;;;2.03;1.53;;;12.70;99.90;;;12.65;55.96;100046.13;6040273;22;98151;-37
2024/03/01 08:19:04;;;;;;;1.00;0.73;;;12.60;99.90;;;13.18;53.88;100051.19;5978547;22;112964;-36
2024/03/01 08:21:36;;;;;;;2.13;1.40;;;12.90;99.90;;;13.08;54.26;100057.88;5942102;22;98076;-39
2024/03/01 08:24:01;;;;;;;2.90;1.47;;;12.90;99.90;;;12.61;56.53;100061.34;5981925;22;97467;-37
2024/03/01 08:26:28;;;;;;;1.90;1.17;;;12.60;99.90;;;12.49;57.06;100057.53;6059266;22;97906;-38
2024/03/01 08:28:55;;;;;;;2.00;1.30;;;12.40;99.90;;;12.41;56.44;100070.28;6028659;22;97751;-36
2024/03/01 08:31:33;;;;;;;2.57;1.10;;;12.30;99.90;;;12.38;56.48;100062.53;6022112;22;97952;-37
2024/03/01 08:34:20;;;;;;;1.97;1.30;;;12.20;99.90;;;12.52;57.87;100067.09;6003057;22;107740;-39
2024/03/01 08:36:50;;;;;;;1.30;1.17;;;12.40;99.90;;;12.44;57.47;100059.59;5999861;22;104240;-39
2024/03/01 08:39:25;;;;;;;3.23;1.50;;;12.30;99.90;;;12.12;58.06;100058.59;5999713;22;97333;-37
2024/03/01 08:41:54;;;;;;;2.07;1.63;;;11.80;99.90;;;12.25;57.82;100069.38;5958487;22;104073;-39
2024/03/01 08:44:48;;;;;;;1.53;1.10;;;12.00;99.90;;;12.49;56.86;100061.97;5986383;22;99088;-38
2024/03/01 08:47:38;;;;;;;1.90;1.40;;;12.20;99.90;;;12.41;57.79;100067.66;5981288;22;97965;-38
2024/03/01 08:50:38;;;;;;;3.10;1.73;;;12.30;99.90;;;12.27;57.81;100074.59;6090183;22;97749;-36
2024/03/01 08:53:56;;;;;;;3.07;1.30;;;12.20;99.90;;;12.12;58.30;100074.44;5924711;22;103897;-38
2024/03/01 08:56:32;;;;;;;1.57;1.07;;;12.10;99.90;;;12.08;59.58;100077.34;5899871;22;105782;-36
2024/03/01 08:58:58;;;;;;;3.63;1.80;;;12.00;99.90;;;12.03;59.26;100077.59;5922352;22;97985;-37
2024/03/01 09:01:42;;;;;;;2.33;1.57;;;12.00;99.90;;;11.69;60.26;100075.72;6012932;22;98030;-38
2024/03/01 09:04:26;;;;;;;4.73;2.17;;;11.80;99.90;;;11.89;60.08;100077.41;6022563;22;104899;-36
2024/03/01 09:07:20;;;;;;;3.47;1.73;;;11.80;99.90;;;11.86;60.45;100088.13;6008343;22;103477;-38
2024/03/01 09:09:49;;;;;;;1.80;1.43;;;11.80;99.90;;;11.86;60.57;100093.41;5920531;22;97822;-40
2024/03/01 09:12:25;;;;;;;2.63;1.60;;;11.70;99.90;;;11.86;60.57;100082.84;5993683;22;123018;-36
2024/03/01 09:15:01;;;;;;;2.23;1.23;;;11.80;99.90;;;11.66;59.91;100083.81;5928605;22;105293;-38
2024/03/01 09:17:33;;;;;;;2.10;1.10;;;11.70;99.90;;;12.27;57.61;100072.81;5929393;22;98208;-38
2024/03/01 09:19:59;;;;;;;3.03;1.30;;;12.10;99.90;;;12.66;56.03;100079.59;5998595;22;97703;-38
2024/03/01 09:22:27;;;;;;;3.30;1.40;;;12.50;99.90;;;12.75;55.30;100076.47;6084746;22;98245;-37
2024/03/01 09:24:54;;;;;;;3.27;1.20;;;12.70;99.90;;;12.65;56.25;100073.44;6045782;22;98532;-39
2024/03/01 09:27:30;;;;;;;1.67;1.20;;;12.70;99.90;;;12.76;55.03;100081.69;6056549;22;100272;-39
2024/03/01 09:29:58;;;;;;;2.63;1.10;;;12.80;99.90;;;12.72;54.29;100079.25;6044787;22;97141;-36
2024/03/01 09:32:24;;;;;;;1.17;0.87;;;12.70;99.90;;;12.92;54.52;100072.91;6094579;22;97908;-39
2024/03/01 09:34:57;;;;;;;1.80;1.00;;;12.80;99.90;;;12.69;54.71;100072.34;6060469;22;125712;-41
2024/03/01 09:37:26;;;;;;;1.33;0.70;;;12.70;99.90;;;12.62;54.63;100073.63;6023864;22;106225;-37
2024/03/01 09:39:53;;;;;;;0.63;0.50;;;12.60;99.90;;;12.56;55.24;100068.63;6006963;22;97823;-38
2024/03/01 09:42:39;;;;;;;0.90;0.53;;;12.60;99.90;;;12.58;55.66;100061.47;6020501;22;98403;-38
2024/03/01 09:45:35;;;;;;;0.50;0.50;;;12.50;99.90;;;12.61;55.24;100060.47;5991630;22;106452;-39
2024/03/01 09:48:42;;;;;;;0.70;0.57;;;12.50;99.90;;;13.04;54.62;100065.16;5975944;22;104788;-38
2024/03/01 09:52:02;;;;;;;3.07;0.93;;;12.80;99.90;;;13.07;53.86;100064.97;6003534;22;102233;-45
2024/03/01 09:54:42;;;;;;;4.23;0.60;;;12.90;99.90;;;13.20;53.25;100073.13;5946675;22;100525;-40
2024/03/01 09:57:19;;;;;;;1.37;0.77;;;13.00;99.90;;;13.21;53.43;100077.47;6028775;22;109636;-38
2024/03/01 09:59:54;;;;;;;1.30;0.83;;;13.10;99.90;;;13.01;53.04;100070.59;5985534;22;101921;-38
2024/03/01 10:02:44;;;;;;;2.53;0.70;;;12.90;99.90;;;13.15;52.96;100072.47;5901400;22;98565;-39
2024/03/01 10:05:29;;;;;;;0.97;0.50;;;13.00;99.90;;;13.03;52.45;100070.53;6036181;22;98269;-38
2024/03/01 10:08:06;;;;;;;1.97;0.90;;;13.00;99.90;;;12.96;53.48;100064.72;5930491;22;107297;-36
2024/03/01 10:10:45;;;;;;;1.17;0.70;;;12.90;99.90;;;13.01;54.50;100064.44;5909563;22;105928;-37
2024/03/01 10:13:41;;;;;;;0.60;0.40;;;12.90;99.90;;;13.09;53.86;100063.09;6051335;22;98165;-38
2024/03/01 10:16:50;;;;;;;1.30;0.63;;;13.00;99.90;;;13.14;53.52;100065.47;6011019;22;97817;-38
2024/03/01 10:20:06;;;;;;;3.43;1.20;;;13.10;99.90;;;13.04;52.08;100069.59;6008858;22;105487;-37
2024/03/01 10:23:05;;;;;;;0.90;0.50;;;13.10;99.90;;;13.34;52.64;100067.06;5977885;22;103898;-38
2024/03/01 10:25:52;;;;;;;2.47;0.50;;;13.20;99.90;;;13.29;51.80;100058.50;5987528;22;97482;-36